sensor_id;sensor_type;location;lat;lon;timestamp;pressure;altitude;pressure_sealevel;temperature;humidity
47883;BME280;37739;50.350;7.578;2023-06-10T00:00:04;99455.31;;;22.44;47.35
47883;BME280;37739;50.350;7.578;2023-06-10T00:02:31;99464.59;;;22.61;47.03
47883;BME280;37739;50.350;7.578;2023-06-10T00:04:58;99461.84;;;22.68;46.63
47883;BME280;37739;50.350;7.578;2023-06-10T00:07:26;99457.59;;;22.61;46.81
47883;BME280;37739;50.350;7.578;2023-06-10T00:09:54;99464.53;;;22.64;46.71
47883;BME280;37739;50.350;7.578;2023-06-10T00:12:20;99457.81;;;22.50;46.89
47883;BME280;37739;50.350;7.578;2023-06-10T00:14:45;99461.41;;;22.42;47.85
47883;BME280;37739;50.350;7.578;2023-06-10T00:17:13;99460.72;;;22.30;47.70
47883;BME280;37739;50.350;7.578;2023-06-10T00:19:40;99460.66;;;22.37;47.75
47883;BME280;37739;50.350;7.578;2023-06-10T00:22:06;99465.16;;;22.27;48.30
47883;BME280;37739;50.350;7.578;2023-06-10T00:24:34;99459.94;;;22.24;47.77
47883;BME280;37739;50.350;7.578;2023-06-10T00:27:03;99457.13;;;22.38;48.00
47883;BME280;37739;50.350;7.578;2023-06-10T00:29:28;99456.44;;;22.28;47.60
47883;BME280;37739;50.350;7.578;2023-06-10T00:31:53;99465.84;;;22.38;47.38
47883;BME280;37739;50.350;7.578;2023-06-10T00:34:24;99465.13;;;22.28;47.87
47883;BME280;37739;50.350;7.578;2023-06-10T00:36:52;99464.31;;;22.25;47.60
47883;BME280;37739;50.350;7.578;2023-06-10T00:39:20;99470.41;;;22.22;47.89
47883;BME280;37739;50.350;7.578;2023-06-10T00:41:48;99466.03;;;22.27;47.83
47883;BME280;37739;50.350;7.578;2023-06-10T00:44:16;99460.06;;;22.16;48.30
47883;BME280;37739;50.350;7.578;2023-06-10T00:46:42;99468.00;;;22.10;48.46
47883;BME280;37739;50.350;7.578;2023-06-10T00:49:10;99469.59;;;22.20;48.06
47883;BME280;37739;50.350;7.578;2023-06-10T00:51:35;99476.50;;;22.26;47.46
47883;BME280;37739;50.350;7.578;2023-06-10T00:54:03;99478.88;;;22.40;47.29
47883;BME280;37739;50.350;7.578;2023-06-10T00:56:37;99478.16;;;22.31;47.83
47883;BME280;37739;50.350;7.578;2023-06-10T00:59:02;99480.81;;;22.28;47.72
47883;BME280;37739;50.350;7.578;2023-06-10T01:01:28;99491.13;;;22.38;47.38
47883;BME280;37739;50.350;7.578;2023-06-10T01:03:57;99484.31;;;22.27;47.62
47883;BME280;37739;50.350;7.578;2023-06-10T01:06:28;99486.06;;;22.27;47.62
47883;BME280;37739;50.350;7.578;2023-06-10T01:09:02;99481.59;;;22.33;47.52
47883;BME280;37739;50.350;7.578;2023-06-10T01:11:41;99485.16;;;22.29;47.72
47883;BME280;37739;50.350;7.578;2023-06-10T01:14:09;99489.53;;;22.29;47.45
47883;BME280;37739;50.350;7.578;2023-06-10T01:16:35;99487.69;;;22.32;47.46
47883;BME280;37739;50.350;7.578;2023-06-10T01:19:02;99486.00;;;22.30;47.57
47883;BME280;37739;50.350;7.578;2023-06-10T01:21:30;99489.56;;;22.26;48.04
47883;BME280;37739;50.350;7.578;2023-06-10T01:23:56;99483.78;;;22.02;48.50
47883;BME280;37739;50.350;7.578;2023-06-10T01:26:32;99491.53;;;22.10;48.87
47883;BME280;37739;50.350;7.578;2023-06-10T01:29:11;99489.72;;;22.13;48.94
47883;BME280;37739;50.350;7.578;2023-06-10T01:31:49;99492.38;;;22.10;48.47
47883;BME280;37739;50.350;7.578;2023-06-10T01:34:18;99484.75;;;21.95;48.96
47883;BME280;37739;50.350;7.578;2023-06-10T01:36:48;99490.09;;;21.89;49.24
47883;BME280;37739;50.350;7.578;2023-06-10T01:39:18;99480.41;;;21.94;49.27
47883;BME280;37739;50.350;7.578;2023-06-10T01:41:47;99472.66;;;21.89;48.95
47883;BME280;37739;50.350;7.578;2023-06-10T01:44:18;99476.94;;;21.95;48.77
47883;BME280;37739;50.350;7.578;2023-06-10T01:46:43;99487.28;;;22.01;48.30
47883;BME280;37739;50.350;7.578;2023-06-10T01:49:09;99482.16;;;21.95;48.61
47883;BME280;37739;50.350;7.578;2023-06-10T01:51:36;99484.97;;;21.80;48.93
47883;BME280;37739;50.350;7.578;2023-06-10T01:54:01;99480.50;;;21.89;48.68
47883;BME280;37739;50.350;7.578;2023-06-10T01:56:27;99483.09;;;21.91;48.63
47883;BME280;37739;50.350;7.578;2023-06-10T01:58:54;99486.53;;;21.93;48.71
47883;BME280;37739;50.350;7.578;2023-06-10T02:01:25;99484.88;;;21.87;48.92
47883;BME280;37739;50.350;7.578;2023-06-10T02:03:50;99489.22;;;21.88;48.76
47883;BME280;37739;50.350;7.578;2023-06-10T02:06:15;99494.56;;;21.81;49.02
47883;BME280;37739;50.350;7.578;2023-06-10T02:08:43;99483.44;;;21.65;49.18
47883;BME280;37739;50.350;7.578;2023-06-10T02:11:13;99492.19;;;21.61;49.38
47883;BME280;37739;50.350;7.578;2023-06-10T02:13:39;99484.31;;;21.65;49.82
47883;BME280;37739;50.350;7.578;2023-06-10T02:16:06;99492.16;;;21.65;49.52
47883;BME280;37739;50.350;7.578;2023-06-10T02:18:32;99490.59;;;21.49;50.16
47883;BME280;37739;50.350;7.578;2023-06-10T02:20:58;99498.50;;;21.40;50.01
47883;BME280;37739;50.350;7.578;2023-06-10T02:23:26;99492.28;;;21.53;50.17
47883;BME280;37739;50.350;7.578;2023-06-10T02:25:54;99495.03;;;21.42;50.13
47883;BME280;37739;50.350;7.578;2023-06-10T02:28:19;99500.13;;;21.51;50.29
47883;BME280;37739;50.350;7.578;2023-06-10T02:30:47;99505.34;;;21.53;49.85
47883;BME280;37739;50.350;7.578;2023-06-10T02:33:15;99492.25;;;21.56;49.83
47883;BME280;37739;50.350;7.578;2023-06-10T02:35:42;99497.59;;;21.48;49.87
47883;BME280;37739;50.350;7.578;2023-06-10T02:38:08;99502.81;;;21.47;49.88
47883;BME280;37739;50.350;7.578;2023-06-10T02:40:33;99499.31;;;21.48;49.80
47883;BME280;37739;50.350;7.578;2023-06-10T02:43:01;99501.09;;;21.43;49.96
47883;BME280;37739;50.350;7.578;2023-06-10T02:45:28;99495.88;;;21.43;49.94
47883;BME280;37739;50.350;7.578;2023-06-10T02:47:58;99497.84;;;21.22;50.64
47883;BME280;37739;50.350;7.578;2023-06-10T02:50:26;99502.97;;;21.28;50.39
47883;BME280;37739;50.350;7.578;2023-06-10T02:52:51;99494.31;;;21.26;50.57
47883;BME280;37739;50.350;7.578;2023-06-10T02:55:16;99498.66;;;21.27;50.33
47883;BME280;37739;50.350;7.578;2023-06-10T02:57:44;99498.75;;;21.20;50.49
47883;BME280;37739;50.350;7.578;2023-06-10T03:00:09;99502.13;;;21.29;49.98
47883;BME280;37739;50.350;7.578;2023-06-10T03:02:39;99501.19;;;21.35;49.98
47883;BME280;37739;50.350;7.578;2023-06-10T03:05:05;99504.81;;;21.22;50.25
47883;BME280;37739;50.350;7.578;2023-06-10T03:07:37;99503.13;;;21.19;50.24
47883;BME280;37739;50.350;7.578;2023-06-10T03:10:06;99498.84;;;21.09;50.03
47883;BME280;37739;50.350;7.578;2023-06-10T03:12:34;99504.06;;;21.09;50.14
47883;BME280;37739;50.350;7.578;2023-06-10T03:14:59;99503.97;;;21.18;50.27
47883;BME280;37739;50.350;7.578;2023-06-10T03:17:25;99496.16;;;21.20;50.07
47883;BME280;37739;50.350;7.578;2023-06-10T03:19:57;99501.44;;;21.12;50.39
47883;BME280;37739;50.350;7.578;2023-06-10T03:22:22;99503.13;;;21.17;49.63
47883;BME280;37739;50.350;7.578;2023-06-10T03:24:47;99502.28;;;21.15;49.81
47883;BME280;37739;50.350;7.578;2023-06-10T03:27:17;99500.72;;;20.97;50.35
47883;BME280;37739;50.350;7.578;2023-06-10T03:29:45;99509.41;;;20.98;50.48
47883;BME280;37739;50.350;7.578;2023-06-10T03:32:13;99512.78;;;21.08;49.98
47883;BME280;37739;50.350;7.578;2023-06-10T03:34:40;99509.44;;;20.93;49.74
47883;BME280;37739;50.350;7.578;2023-06-10T03:37:06;99514.56;;;21.03;49.85
47883;BME280;37739;50.350;7.578;2023-06-10T03:39:32;99519.78;;;21.06;49.66
47883;BME280;37739;50.350;7.578;2023-06-10T03:41:57;99517.97;;;21.11;49.13
47883;BME280;37739;50.350;7.578;2023-06-10T03:44:24;99518.78;;;21.14;48.99
47883;BME280;37739;50.350;7.578;2023-06-10T03:46:50;99520.53;;;21.15;48.90
47883;BME280;37739;50.350;7.578;2023-06-10T03:49:17;99516.25;;;21.11;48.41
47883;BME280;37739;50.350;7.578;2023-06-10T03:51:42;99524.94;;;21.09;48.44
47883;BME280;37739;50.350;7.578;2023-06-10T03:54:08;99522.34;;;21.07;48.58
47883;BME280;37739;50.350;7.578;2023-06-10T03:56:35;99524.06;;;21.10;48.59
47883;BME280;37739;50.350;7.578;2023-06-10T03:59:01;99517.00;;;21.20;48.19
47883;BME280;37739;50.350;7.578;2023-06-10T04:01:26;99516.09;;;21.25;47.82
47883;BME280;37739;50.350;7.578;2023-06-10T04:03:52;99524.84;;;21.16;47.80
47883;BME280;37739;50.350;7.578;2023-06-10T04:06:19;99521.38;;;21.17;48.08
47883;BME280;37739;50.350;7.578;2023-06-10T04:08:45;99528.25;;;21.25;47.96
47883;BME280;37739;50.350;7.578;2023-06-10T04:11:10;99524.78;;;21.24;48.10
47883;BME280;37739;50.350;7.578;2023-06-10T04:13:35;99520.78;;;20.91;49.47
47883;BME280;37739;50.350;7.578;2023-06-10T04:16:02;99527.75;;;20.90;49.65
47883;BME280;37739;50.350;7.578;2023-06-10T04:18:30;99534.72;;;20.87;50.04
47883;BME280;37739;50.350;7.578;2023-06-10T04:20:57;99525.09;;;20.95;50.31
47883;BME280;37739;50.350;7.578;2023-06-10T04:23:23;99533.81;;;20.91;50.82
47883;BME280;37739;50.350;7.578;2023-06-10T04:25:50;99528.59;;;20.89;51.38
47883;BME280;37739;50.350;7.578;2023-06-10T04:28:16;99533.88;;;20.85;51.44
47883;BME280;37739;50.350;7.578;2023-06-10T04:30:43;99533.00;;;20.84;51.74
47883;BME280;37739;50.350;7.578;2023-06-10T04:33:10;99539.09;;;20.82;51.77
47883;BME280;37739;50.350;7.578;2023-06-10T04:35:37;99533.06;;;20.78;52.00
47883;BME280;37739;50.350;7.578;2023-06-10T04:38:05;99539.19;;;20.74;52.58
47883;BME280;37739;50.350;7.578;2023-06-10T04:40:30;99534.00;;;20.69;53.09
47883;BME280;37739;50.350;7.578;2023-06-10T04:42:55;99546.19;;;20.66;53.27
47883;BME280;37739;50.350;7.578;2023-06-10T04:45:21;99539.28;;;20.60;53.79
47883;BME280;37739;50.350;7.578;2023-06-10T04:47:46;99546.25;;;20.55;53.88
47883;BME280;37739;50.350;7.578;2023-06-10T04:50:11;99545.41;;;20.51;54.01
47883;BME280;37739;50.350;7.578;2023-06-10T04:52:37;99548.91;;;20.47;54.54
47883;BME280;37739;50.350;7.578;2023-06-10T04:55:06;99546.31;;;20.47;54.58
47883;BME280;37739;50.350;7.578;2023-06-10T04:57:32;99545.41;;;20.51;54.81
47883;BME280;37739;50.350;7.578;2023-06-10T04:59:57;99548.91;;;20.50;54.57
47883;BME280;37739;50.350;7.578;2023-06-10T05:02:23;99550.59;;;20.51;54.70
47883;BME280;37739;50.350;7.578;2023-06-10T05:04:48;99551.44;;;20.58;54.81
47883;BME280;37739;50.350;7.578;2023-06-10T05:07:13;99548.00;;;20.56;54.67
47883;BME280;37739;50.350;7.578;2023-06-10T05:09:38;99551.44;;;20.56;54.96
47883;BME280;37739;50.350;7.578;2023-06-10T05:12:06;99554.91;;;20.63;54.61
47883;BME280;37739;50.350;7.578;2023-06-10T05:14:32;99551.44;;;20.64;55.29
47883;BME280;37739;50.350;7.578;2023-06-10T05:16:59;99551.38;;;20.69;54.47
47883;BME280;37739;50.350;7.578;2023-06-10T05:19:25;99555.66;;;20.74;54.70
47883;BME280;37739;50.350;7.578;2023-06-10T05:21:50;99556.47;;;20.84;54.13
47883;BME280;37739;50.350;7.578;2023-06-10T05:24:17;99555.59;;;20.85;54.27
47883;BME280;37739;50.350;7.578;2023-06-10T05:26:43;99557.28;;;20.88;54.22
47883;BME280;37739;50.350;7.578;2023-06-10T05:29:08;99562.56;;;20.86;54.65
47883;BME280;37739;50.350;7.578;2023-06-10T05:31:36;99554.69;;;20.88;54.78
47883;BME280;37739;50.350;7.578;2023-06-10T05:34:03;99558.13;;;20.93;54.51
47883;BME280;37739;50.350;7.578;2023-06-10T05:36:33;99558.97;;;20.95;54.38
47883;BME280;37739;50.350;7.578;2023-06-10T05:39:01;99558.03;;;21.04;53.78
47883;BME280;37739;50.350;7.578;2023-06-10T05:41:31;99559.75;;;21.06;53.38
47883;BME280;37739;50.350;7.578;2023-06-10T05:43:59;99557.91;;;21.14;52.78
47883;BME280;37739;50.350;7.578;2023-06-10T05:46:24;99560.53;;;21.16;53.03
47883;BME280;37739;50.350;7.578;2023-06-10T05:48:49;99562.22;;;21.20;52.58
47883;BME280;37739;50.350;7.578;2023-06-10T05:51:17;99558.66;;;21.29;52.46
47883;BME280;37739;50.350;7.578;2023-06-10T05:53:42;99556.00;;;21.33;51.97
47883;BME280;37739;50.350;7.578;2023-06-10T05:56:08;99559.38;;;21.40;52.09
47883;BME280;37739;50.350;7.578;2023-06-10T05:58:36;99558.47;;;21.49;51.78
47883;BME280;37739;50.350;7.578;2023-06-10T06:01:04;99560.13;;;21.54;51.27
47883;BME280;37739;50.350;7.578;2023-06-10T06:03:31;99554.91;;;21.58;51.29
47883;BME280;37739;50.350;7.578;2023-06-10T06:05:59;99559.19;;;21.62;50.77
47883;BME280;37739;50.350;7.578;2023-06-10T06:08:29;99555.66;;;21.67;50.39
47883;BME280;37739;50.350;7.578;2023-06-10T06:10:54;99552.06;;;21.74;50.24
47883;BME280;37739;50.350;7.578;2023-06-10T06:13:22;99552.91;;;21.76;50.32
47883;BME280;37739;50.350;7.578;2023-06-10T06:15:48;99558.06;;;21.81;49.96
47883;BME280;37739;50.350;7.578;2023-06-10T06:18:13;99552.84;;;21.83;49.69
47883;BME280;37739;50.350;7.578;2023-06-10T06:20:41;99557.97;;;21.89;49.54
47883;BME280;37739;50.350;7.578;2023-06-10T06:23:08;99556.13;;;21.95;49.69
47883;BME280;37739;50.350;7.578;2023-06-10T06:25:38;99554.31;;;22.04;49.28
47883;BME280;37739;50.350;7.578;2023-06-10T06:28:06;99562.00;;;22.13;49.02
47883;BME280;37739;50.350;7.578;2023-06-10T06:30:32;99555.84;;;22.17;48.92
47883;BME280;37739;50.350;7.578;2023-06-10T06:32:59;99552.31;;;22.21;48.76
47883;BME280;37739;50.350;7.578;2023-06-10T06:35:25;99547.94;;;22.22;48.50
47883;BME280;37739;50.350;7.578;2023-06-10T06:37:50;99553.94;;;22.30;48.11
47883;BME280;37739;50.350;7.578;2023-06-10T06:40:15;99566.03;;;22.37;48.22
47883;BME280;37739;50.350;7.578;2023-06-10T06:42:44;99562.47;;;22.44;48.09
47883;BME280;37739;50.350;7.578;2023-06-10T06:45:12;99564.88;;;22.55;47.87
47883;BME280;37739;50.350;7.578;2023-06-10T06:47:40;99564.13;;;22.50;47.99
47883;BME280;37739;50.350;7.578;2023-06-10T06:50:05;99569.13;;;22.64;47.81
47883;BME280;37739;50.350;7.578;2023-06-10T06:52:33;99564.66;;;22.70;47.59
47883;BME280;37739;50.350;7.578;2023-06-10T06:54:58;99576.81;;;22.73;47.83
47883;BME280;37739;50.350;7.578;2023-06-10T06:57:23;99571.53;;;22.74;47.56
47883;BME280;37739;50.350;7.578;2023-06-10T06:59:51;99575.78;;;22.83;47.01
47883;BME280;37739;50.350;7.578;2023-06-10T07:02:19;99585.19;;;22.92;47.09
47883;BME280;37739;50.350;7.578;2023-06-10T07:04:44;99578.94;;;23.02;47.06
47883;BME280;37739;50.350;7.578;2023-06-10T07:07:11;99580.56;;;23.09;47.24
47883;BME280;37739;50.350;7.578;2023-06-10T07:09:38;99576.06;;;23.19;46.64
47883;BME280;37739;50.350;7.578;2023-06-10T07:12:04;99580.41;;;23.19;46.68
47883;BME280;37739;50.350;7.578;2023-06-10T07:14:34;99583.69;;;23.31;46.63
47883;BME280;37739;50.350;7.578;2023-06-10T07:17:02;99577.50;;;23.36;46.54
47883;BME280;37739;50.350;7.578;2023-06-10T07:19:27;99590.44;;;23.43;46.23
47883;BME280;37739;50.350;7.578;2023-06-10T07:21:55;99586.94;;;23.44;46.24
47883;BME280;37739;50.350;7.578;2023-06-10T07:24:20;99588.53;;;23.51;46.12
47883;BME280;37739;50.350;7.578;2023-06-10T07:26:46;99594.56;;;23.55;46.02
47883;BME280;37739;50.350;7.578;2023-06-10T07:29:11;99592.66;;;23.63;46.00
47883;BME280;37739;50.350;7.578;2023-06-10T07:31:36;99591.59;;;23.74;45.76
47883;BME280;37739;50.350;7.578;2023-06-10T07:34:04;99583.47;;;23.87;45.70
47883;BME280;37739;50.350;7.578;2023-06-10T07:36:29;99598.06;;;23.99;45.23
47883;BME280;37739;50.350;7.578;2023-06-10T07:38:55;99595.25;;;24.08;45.03
47883;BME280;37739;50.350;7.578;2023-06-10T07:41:20;99590.72;;;24.17;45.13
47883;BME280;37739;50.350;7.578;2023-06-10T07:43:50;99595.78;;;24.24;44.92
47883;BME280;37739;50.350;7.578;2023-06-10T07:46:20;99591.31;;;24.29;45.09
47883;BME280;37739;50.350;7.578;2023-06-10T07:48:45;99589.50;;;24.32;44.75
47883;BME280;37739;50.350;7.578;2023-06-10T07:51:12;99589.47;;;24.35;44.33
47883;BME280;37739;50.350;7.578;2023-06-10T07:53:40;99583.81;;;24.53;44.29
47883;BME280;37739;50.350;7.578;2023-06-10T07:56:06;99591.56;;;24.58;43.66
47883;BME280;37739;50.350;7.578;2023-06-10T07:58:33;99592.84;;;24.77;43.75
47883;BME280;37739;50.350;7.578;2023-06-10T08:00:58;99593.59;;;24.82;43.83
47883;BME280;37739;50.350;7.578;2023-06-10T08:03:24;99597.75;;;24.91;43.60
47883;BME280;37739;50.350;7.578;2023-06-10T08:05:49;99593.56;;;24.84;43.42
47883;BME280;37739;50.350;7.578;2023-06-10T08:08:16;99585.22;;;25.02;43.67
47883;BME280;37739;50.350;7.578;2023-06-10T08:10:42;99592.91;;;25.10;43.37
47883;BME280;37739;50.350;7.578;2023-06-10T08:13:08;99593.78;;;25.09;43.49
47883;BME280;37739;50.350;7.578;2023-06-10T08:15:36;99584.94;;;25.13;43.12
47883;BME280;37739;50.350;7.578;2023-06-10T08:18:03;99588.34;;;25.17;42.83
47883;BME280;37739;50.350;7.578;2023-06-10T08:20:29;99587.91;;;25.35;43.08
47883;BME280;37739;50.350;7.578;2023-06-10T08:22:54;99588.19;;;25.56;42.86
47883;BME280;37739;50.350;7.578;2023-06-10T08:25:19;99588.72;;;25.69;42.77
47883;BME280;37739;50.350;7.578;2023-06-10T08:27:47;99583.25;;;25.76;42.04
47883;BME280;37739;50.350;7.578;2023-06-10T08:30:14;99574.84;;;25.63;41.85
47883;BME280;37739;50.350;7.578;2023-06-10T08:32:43;99587.84;;;25.68;41.77
47883;BME280;37739;50.350;7.578;2023-06-10T08:35:08;99581.53;;;25.75;41.75
47883;BME280;37739;50.350;7.578;2023-06-10T08:37:33;99579.84;;;25.73;41.32
47883;BME280;37739;50.350;7.578;2023-06-10T08:39:59;99574.09;;;25.91;41.25
47883;BME280;37739;50.350;7.578;2023-06-10T08:42:36;99583.09;;;26.12;41.41
47883;BME280;37739;50.350;7.578;2023-06-10T08:45:07;99582.91;;;26.18;41.16
47883;BME280;37739;50.350;7.578;2023-06-10T08:47:38;99573.56;;;26.36;40.09
47883;BME280;37739;50.350;7.578;2023-06-10T08:50:09;99579.91;;;26.59;40.64
47883;BME280;37739;50.350;7.578;2023-06-10T08:52:40;99576.81;;;26.73;40.88
47883;BME280;37739;50.350;7.578;2023-06-10T08:55:12;99579.47;;;26.73;40.83
47883;BME280;37739;50.350;7.578;2023-06-10T08:57:40;99578.41;;;26.78;40.00
47883;BME280;37739;50.350;7.578;2023-06-10T09:00:06;99575.25;;;26.94;40.35
47883;BME280;37739;50.350;7.578;2023-06-10T09:02:35;99584.00;;;27.19;39.80
47883;BME280;37739;50.350;7.578;2023-06-10T09:05:02;99577.84;;;27.20;39.51
47883;BME280;37739;50.350;7.578;2023-06-10T09:07:30;99577.28;;;27.37;39.40
47883;BME280;37739;50.350;7.578;2023-06-10T09:09:57;99575.25;;;27.46;39.16
47883;BME280;37739;50.350;7.578;2023-06-10T09:12:22;99574.34;;;27.47;39.63
47883;BME280;37739;50.350;7.578;2023-06-10T09:14:50;99568.00;;;27.76;38.92
47883;BME280;37739;50.350;7.578;2023-06-10T09:17:19;99572.13;;;27.83;38.96
47883;BME280;37739;50.350;7.578;2023-06-10T09:19:47;99566.03;;;27.81;38.30
47883;BME280;37739;50.350;7.578;2023-06-10T09:22:15;99565.59;;;27.70;38.05
47883;BME280;37739;50.350;7.578;2023-06-10T09:24:42;99557.03;;;27.63;36.97
47883;BME280;37739;50.350;7.578;2023-06-10T09:27:08;99552.41;;;27.70;37.71
47883;BME280;37739;50.350;7.578;2023-06-10T09:29:54;99559.47;;;27.93;36.17
47883;BME280;37739;50.350;7.578;2023-06-10T09:32:20;99554.47;;;28.09;37.38
47883;BME280;37739;50.350;7.578;2023-06-10T09:34:46;99558.94;;;28.29;37.54
47883;BME280;37739;50.350;7.578;2023-06-10T09:37:12;99552.91;;;28.25;35.92
47883;BME280;37739;50.350;7.578;2023-06-10T09:39:40;99554.53;;;28.29;35.08
47883;BME280;37739;50.350;7.578;2023-06-10T09:42:26;99547.59;;;28.49;35.92
47883;BME280;37739;50.350;7.578;2023-06-10T09:44:54;99542.31;;;28.71;33.96
47883;BME280;37739;50.350;7.578;2023-06-10T09:47:20;99547.66;;;28.69;34.40
47883;BME280;37739;50.350;7.578;2023-06-10T09:49:49;99545.72;;;28.95;34.55
47883;BME280;37739;50.350;7.578;2023-06-10T09:52:24;99544.31;;;29.07;34.16
47883;BME280;37739;50.350;7.578;2023-06-10T09:54:55;99542.81;;;29.01;33.70
47883;BME280;37739;50.350;7.578;2023-06-10T09:57:23;99540.88;;;29.25;34.18
47883;BME280;37739;50.350;7.578;2023-06-10T09:59:55;99536.03;;;29.55;34.20
47883;BME280;37739;50.350;7.578;2023-06-10T10:02:20;99542.34;;;29.72;33.75
47883;BME280;37739;50.350;7.578;2023-06-10T10:04:48;99537.94;;;29.72;31.51
47883;BME280;37739;50.350;7.578;2023-06-10T10:07:16;99539.75;;;29.70;31.31
47883;BME280;37739;50.350;7.578;2023-06-10T10:09:42;99541.84;;;29.83;30.88
47883;BME280;37739;50.350;7.578;2023-06-10T10:12:15;99530.19;;;29.68;28.94
47883;BME280;37739;50.350;7.578;2023-06-10T10:14:46;99538.97;;;29.68;30.09
47883;BME280;37739;50.350;7.578;2023-06-10T10:17:16;99541.34;;;29.93;30.09
47883;BME280;37739;50.350;7.578;2023-06-10T10:19:50;99534.75;;;30.02;28.61
47883;BME280;37739;50.350;7.578;2023-06-10T10:22:24;99540.59;;;29.71;28.30
47883;BME280;37739;50.350;7.578;2023-06-10T10:24:55;99536.78;;;29.97;28.44
47883;BME280;37739;50.350;7.578;2023-06-10T10:29:53;99544.84;;;30.32;27.46
47883;BME280;37739;50.350;7.578;2023-06-10T10:32:28;99540.09;;;30.39;27.69
47883;BME280;37739;50.350;7.578;2023-06-10T10:35:12;99541.47;;;30.09;27.06
47883;BME280;37739;50.350;7.578;2023-06-10T10:37:40;99538.16;;;30.23;27.78
47883;BME280;37739;50.350;7.578;2023-06-10T10:40:07;99527.97;;;30.52;25.68
47883;BME280;37739;50.350;7.578;2023-06-10T10:42:33;99531.25;;;30.57;26.79
47883;BME280;37739;50.350;7.578;2023-06-10T10:45:00;99538.25;;;30.58;26.63
47883;BME280;37739;50.350;7.578;2023-06-10T10:47:30;99529.44;;;30.21;27.59
47883;BME280;37739;50.350;7.578;2023-06-10T10:50:00;99529.06;;;30.29;26.41
47883;BME280;37739;50.350;7.578;2023-06-10T10:52:47;99520.91;;;30.52;26.89
47883;BME280;37739;50.350;7.578;2023-06-10T10:55:15;99521.59;;;30.56;27.61
47883;BME280;37739;50.350;7.578;2023-06-10T10:57:41;99530.69;;;30.50;26.83
47883;BME280;37739;50.350;7.578;2023-06-10T11:00:09;99532.81;;;30.79;25.77
47883;BME280;37739;50.350;7.578;2023-06-10T11:02:47;99534.16;;;31.05;25.95
47883;BME280;37739;50.350;7.578;2023-06-10T11:05:15;99523.38;;;31.25;25.94
47883;BME280;37739;50.350;7.578;2023-06-10T11:07:51;99528.00;;;31.22;26.43
47883;BME280;37739;50.350;7.578;2023-06-10T11:10:29;99530.50;;;31.07;26.23
47883;BME280;37739;50.350;7.578;2023-06-10T11:12:56;99519.31;;;31.36;26.41
47883;BME280;37739;50.350;7.578;2023-06-10T11:15:29;99525.25;;;31.23;26.21
47883;BME280;37739;50.350;7.578;2023-06-10T11:18:19;99514.16;;;31.33;26.11
47883;BME280;37739;50.350;7.578;2023-06-10T11:23:39;99510.47;;;31.53;26.34
47883;BME280;37739;50.350;7.578;2023-06-10T11:28:37;99502.81;;;31.80;25.14
47883;BME280;37739;50.350;7.578;2023-06-10T11:31:02;99513.56;;;31.93;25.99
47883;BME280;37739;50.350;7.578;2023-06-10T11:33:28;99505.50;;;31.29;25.98
47883;BME280;37739;50.350;7.578;2023-06-10T11:35:54;99497.41;;;30.99;25.58
47883;BME280;37739;50.350;7.578;2023-06-10T11:38:22;99499.69;;;31.22;26.07
47883;BME280;37739;50.350;7.578;2023-06-10T11:40:51;99495.00;;;31.93;26.33
47883;BME280;37739;50.350;7.578;2023-06-10T11:43:19;99496.38;;;32.16;25.63
47883;BME280;37739;50.350;7.578;2023-06-10T11:45:45;99497.06;;;32.19;25.37
47883;BME280;37739;50.350;7.578;2023-06-10T11:48:13;99490.53;;;31.77;25.74
47883;BME280;37739;50.350;7.578;2023-06-10T11:50:38;99501.66;;;31.68;25.80
47883;BME280;37739;50.350;7.578;2023-06-10T11:53:04;99488.56;;;31.97;26.17
47883;BME280;37739;50.350;7.578;2023-06-10T11:55:44;99491.25;;;31.81;25.35
47883;BME280;37739;50.350;7.578;2023-06-10T11:58:17;99490.94;;;32.03;24.63
47883;BME280;37739;50.350;7.578;2023-06-10T12:00:50;99487.53;;;32.31;24.97
47883;BME280;37739;50.350;7.578;2023-06-10T12:03:17;99492.19;;;32.58;24.42
47883;BME280;37739;50.350;7.578;2023-06-10T12:06:00;99473.94;;;32.52;23.98
47883;BME280;37739;50.350;7.578;2023-06-10T12:08:26;99490.63;;;32.39;24.10
47883;BME280;37739;50.350;7.578;2023-06-10T12:10:52;99486.44;;;32.19;24.88
47883;BME280;37739;50.350;7.578;2023-06-10T12:13:18;99476.66;;;32.36;23.59
47883;BME280;37739;50.350;7.578;2023-06-10T12:15:44;99485.75;;;32.62;24.40
47883;BME280;37739;50.350;7.578;2023-06-10T12:18:19;99475.13;;;32.62;24.11
47883;BME280;37739;50.350;7.578;2023-06-10T12:20:45;99473.88;;;32.53;24.20
47883;BME280;37739;50.350;7.578;2023-06-10T12:23:14;99477.84;;;32.76;24.84
47883;BME280;37739;50.350;7.578;2023-06-10T12:25:47;99475.31;;;33.03;24.97
47883;BME280;37739;50.350;7.578;2023-06-10T12:28:14;99469.88;;;32.91;24.78
47883;BME280;37739;50.350;7.578;2023-06-10T12:30:40;99467.97;;;32.93;24.53
47883;BME280;37739;50.350;7.578;2023-06-10T12:33:18;99465.31;;;32.93;23.63
47883;BME280;37739;50.350;7.578;2023-06-10T12:35:51;99452.50;;;32.71;23.38
47883;BME280;37739;50.350;7.578;2023-06-10T12:38:29;99476.34;;;32.26;24.51
47883;BME280;37739;50.350;7.578;2023-06-10T12:41:02;99480.00;;;32.70;24.18
47883;BME280;37739;50.350;7.578;2023-06-10T12:43:31;99476.53;;;33.41;23.05
47883;BME280;37739;50.350;7.578;2023-06-10T12:46:08;99469.47;;;33.83;23.59
47883;BME280;37739;50.350;7.578;2023-06-10T12:48:37;99477.19;;;33.88;23.22
47883;BME280;37739;50.350;7.578;2023-06-10T12:51:14;99472.19;;;33.96;23.02
47883;BME280;37739;50.350;7.578;2023-06-10T12:53:39;99472.78;;;33.87;23.29
47883;BME280;37739;50.350;7.578;2023-06-10T12:56:04;99467.72;;;33.40;24.07
47883;BME280;37739;50.350;7.578;2023-06-10T12:58:30;99466.94;;;33.53;24.12
47883;BME280;37739;50.350;7.578;2023-06-10T13:00:57;99477.19;;;33.73;23.70
47883;BME280;37739;50.350;7.578;2023-06-10T13:03:24;99468.16;;;33.76;23.48
47883;BME280;37739;50.350;7.578;2023-06-10T13:05:49;99475.97;;;33.07;24.42
47883;BME280;37739;50.350;7.578;2023-06-10T13:08:17;99464.41;;;33.51;24.56
47883;BME280;37739;50.350;7.578;2023-06-10T13:10:42;99468.44;;;34.53;24.04